KMDW/MDW METAR and TAF weather

Enter ICAO airport designator
Station Type Date Time Source
KMDW METAR 2019/10/22 16:53 UTC NOAA

KMDW 221653Z 25020G28KT 10SM -RA SCT025 BKN033 OVC043 09/05 A2964 RMK AO2 PK WND 24033/1625 RAB11E29B37 SLP037 P0000 T00890050


Station Type Date Time Source
KMDW Decoded METAR 2019/10/22 16:53 UTC NOAA

CHICAGO MIDWAY AIRPORT, IL, United States (KMDW) 41-47N 087-45W 188M
Oct 22, 2019 - 12:53 PM EDT / 2019.10.22 1653 UTC
Wind: from the WSW (250 degrees) at 23 MPH (20 KT) gusting to 32 MPH (28 KT):0
Visibility: 10 mile(s):0
Sky conditions: overcast
Weather: light rain
Precipitation last hour: A trace
Temperature: 48.0 F (8.9 C)
Dew Point: 41.0 F (5.0 C)
Relative Humidity: 76%
Pressure (altimeter): 29.64 in. Hg (1003 hPa)
ob: KMDW 221653Z 25020G28KT 10SM -RA SCT025 BKN033 OVC043 09/05 A2964 RMK AO2 PK WND 24033/1625 RAB11E29B37 SLP037 P0000 T00890050
cycle: 17

Station Type Date Time Source
KMDW TAF 2019/10/22 15:21 UTC NOAA

TAF
AMD KMDW 221518Z 2215/2318 24021G35KT P6SM BKN020 OVC035
TEMPO 2215/2218 6SM -SHRA
FM222200 26019G29KT P6SM SCT025 OVC035
FM230600 25013G21KT P6SM SCT030

Example: see airport list